sensor_id;sensor_type;location;lat;lon;timestamp;temperature;humidity
18888;DHT22;9576;47.792;9.628;2022-07-06T00:01:23;17.10;99.90
18888;DHT22;9576;47.792;9.628;2022-07-06T00:04:27;17.10;99.90
18888;DHT22;9576;47.792;9.628;2022-07-06T00:07:28;17.10;99.90
18888;DHT22;9576;47.792;9.628;2022-07-06T00:10:30;17.10;99.90
18888;DHT22;9576;47.792;9.628;2022-07-06T00:13:32;17.10;99.90
18888;DHT22;9576;47.792;9.628;2022-07-06T00:16:34;17.10;99.90
18888;DHT22;9576;47.792;9.628;2022-07-06T00:19:38;17.00;99.90
18888;DHT22;9576;47.792;9.628;2022-07-06T00:22:40;16.90;99.90
18888;DHT22;9576;47.792;9.628;2022-07-06T00:25:42;16.80;99.90
18888;DHT22;9576;47.792;9.628;2022-07-06T00:28:44;16.80;99.90
18888;DHT22;9576;47.792;9.628;2022-07-06T00:31:46;16.70;99.90
18888;DHT22;9576;47.792;9.628;2022-07-06T00:34:49;16.70;99.90
18888;DHT22;9576;47.792;9.628;2022-07-06T00:37:51;16.70;99.90
18888;DHT22;9576;47.792;9.628;2022-07-06T00:40:53;16.70;99.90
18888;DHT22;9576;47.792;9.628;2022-07-06T00:43:56;16.70;99.90
18888;DHT22;9576;47.792;9.628;2022-07-06T00:46:58;16.70;99.90
18888;DHT22;9576;47.792;9.628;2022-07-06T00:50:01;16.60;99.90
18888;DHT22;9576;47.792;9.628;2022-07-06T00:53:18;16.60;99.90
18888;DHT22;9576;47.792;9.628;2022-07-06T00:56:20;16.60;99.90
18888;DHT22;9576;47.792;9.628;2022-07-06T00:59:23;16.60;99.90
18888;DHT22;9576;47.792;9.628;2022-07-06T01:02:25;16.50;99.90
18888;DHT22;9576;47.792;9.628;2022-07-06T01:05:29;16.50;99.90
18888;DHT22;9576;47.792;9.628;2022-07-06T01:08:31;16.50;99.90
18888;DHT22;9576;47.792;9.628;2022-07-06T01:11:33;16.40;99.90
18888;DHT22;9576;47.792;9.628;2022-07-06T01:14:36;16.30;99.90
18888;DHT22;9576;47.792;9.628;2022-07-06T01:17:39;16.30;99.90
18888;DHT22;9576;47.792;9.628;2022-07-06T01:20:43;16.30;99.90
18888;DHT22;9576;47.792;9.628;2022-07-06T01:24:05;16.10;99.90
18888;DHT22;9576;47.792;9.628;2022-07-06T01:27:07;16.00;99.90
18888;DHT22;9576;47.792;9.628;2022-07-06T01:30:11;15.90;99.90
18888;DHT22;9576;47.792;9.628;2022-07-06T01:33:13;15.90;99.90
18888;DHT22;9576;47.792;9.628;2022-07-06T01:36:16;16.00;99.90
18888;DHT22;9576;47.792;9.628;2022-07-06T01:39:18;15.90;99.90
18888;DHT22;9576;47.792;9.628;2022-07-06T01:42:20;15.90;99.90
18888;DHT22;9576;47.792;9.628;2022-07-06T01:45:22;15.80;99.90
18888;DHT22;9576;47.792;9.628;2022-07-06T01:48:24;15.70;99.90
18888;DHT22;9576;47.792;9.628;2022-07-06T01:51:28;15.70;99.90
18888;DHT22;9576;47.792;9.628;2022-07-06T01:54:30;15.70;99.90
18888;DHT22;9576;47.792;9.628;2022-07-06T01:57:32;15.60;99.90
18888;DHT22;9576;47.792;9.628;2022-07-06T02:00:34;15.50;99.90
18888;DHT22;9576;47.792;9.628;2022-07-06T02:03:36;15.50;99.90
18888;DHT22;9576;47.792;9.628;2022-07-06T02:06:39;15.50;99.90
18888;DHT22;9576;47.792;9.628;2022-07-06T02:09:41;15.50;99.90
18888;DHT22;9576;47.792;9.628;2022-07-06T02:12:43;15.40;99.90
18888;DHT22;9576;47.792;9.628;2022-07-06T02:15:45;15.20;99.90
18888;DHT22;9576;47.792;9.628;2022-07-06T02:18:47;14.90;99.90
18888;DHT22;9576;47.792;9.628;2022-07-06T02:21:50;15.00;99.90
18888;DHT22;9576;47.792;9.628;2022-07-06T02:24:52;15.10;99.90
18888;DHT22;9576;47.792;9.628;2022-07-06T02:27:54;15.20;99.90
18888;DHT22;9576;47.792;9.628;2022-07-06T02:30:56;15.00;99.90
18888;DHT22;9576;47.792;9.628;2022-07-06T02:33:58;15.00;99.90
18888;DHT22;9576;47.792;9.628;2022-07-06T02:37:02;15.00;99.90
18888;DHT22;9576;47.792;9.628;2022-07-06T02:40:05;15.10;99.90
18888;DHT22;9576;47.792;9.628;2022-07-06T02:43:07;15.20;99.90
18888;DHT22;9576;47.792;9.628;2022-07-06T02:46:09;15.30;99.90
18888;DHT22;9576;47.792;9.628;2022-07-06T02:49:11;15.30;99.90
18888;DHT22;9576;47.792;9.628;2022-07-06T02:52:14;15.30;99.90
18888;DHT22;9576;47.792;9.628;2022-07-06T02:55:16;15.40;99.90
18888;DHT22;9576;47.792;9.628;2022-07-06T02:58:18;15.40;99.90
18888;DHT22;9576;47.792;9.628;2022-07-06T03:01:20;15.50;99.90
18888;DHT22;9576;47.792;9.628;2022-07-06T03:04:22;15.40;99.90
18888;DHT22;9576;47.792;9.628;2022-07-06T03:07:26;15.40;99.90
18888;DHT22;9576;47.792;9.628;2022-07-06T03:10:28;15.40;99.90
18888;DHT22;9576;47.792;9.628;2022-07-06T03:13:30;15.40;99.90
18888;DHT22;9576;47.792;9.628;2022-07-06T03:16:32;15.40;99.90
18888;DHT22;9576;47.792;9.628;2022-07-06T03:19:34;15.30;99.90
18888;DHT22;9576;47.792;9.628;2022-07-06T03:22:38;15.30;99.90
18888;DHT22;9576;47.792;9.628;2022-07-06T03:25:40;15.30;99.90
18888;DHT22;9576;47.792;9.628;2022-07-06T03:28:42;15.30;99.90
18888;DHT22;9576;47.792;9.628;2022-07-06T03:31:44;15.30;99.90
18888;DHT22;9576;47.792;9.628;2022-07-06T03:34:46;15.20;99.90
18888;DHT22;9576;47.792;9.628;2022-07-06T03:37:49;15.10;99.90
18888;DHT22;9576;47.792;9.628;2022-07-06T03:40:51;15.10;99.90
18888;DHT22;9576;47.792;9.628;2022-07-06T03:43:53;15.00;99.90
18888;DHT22;9576;47.792;9.628;2022-07-06T03:46:55;15.00;99.90
18888;DHT22;9576;47.792;9.628;2022-07-06T03:49:57;14.80;99.90
18888;DHT22;9576;47.792;9.628;2022-07-06T03:53:00;14.80;99.90
18888;DHT22;9576;47.792;9.628;2022-07-06T03:56:03;14.80;99.90
18888;DHT22;9576;47.792;9.628;2022-07-06T03:59:22;14.80;99.90
18888;DHT22;9576;47.792;9.628;2022-07-06T04:02:24;14.80;99.90
18888;DHT22;9576;47.792;9.628;2022-07-06T04:05:26;14.80;99.90
18888;DHT22;9576;47.792;9.628;2022-07-06T04:08:29;14.80;99.90
18888;DHT22;9576;47.792;9.628;2022-07-06T04:11:31;14.90;99.90
18888;DHT22;9576;47.792;9.628;2022-07-06T04:14:33;15.00;99.90
18888;DHT22;9576;47.792;9.628;2022-07-06T04:17:35;15.00;99.90
18888;DHT22;9576;47.792;9.628;2022-07-06T04:20:56;15.00;99.90
18888;DHT22;9576;47.792;9.628;2022-07-06T04:24:00;15.10;99.90
18888;DHT22;9576;47.792;9.628;2022-07-06T04:27:02;15.10;99.90
18888;DHT22;9576;47.792;9.628;2022-07-06T04:30:06;15.10;99.90
18888;DHT22;9576;47.792;9.628;2022-07-06T04:33:08;15.20;99.90
18888;DHT22;9576;47.792;9.628;2022-07-06T04:36:10;15.20;99.90
18888;DHT22;9576;47.792;9.628;2022-07-06T04:39:13;15.20;99.90
18888;DHT22;9576;47.792;9.628;2022-07-06T04:42:15;15.20;99.90
18888;DHT22;9576;47.792;9.628;2022-07-06T04:45:17;15.20;99.90
18888;DHT22;9576;47.792;9.628;2022-07-06T04:48:19;15.20;99.90
18888;DHT22;9576;47.792;9.628;2022-07-06T04:51:21;15.20;99.90
18888;DHT22;9576;47.792;9.628;2022-07-06T04:54:25;15.30;99.90
18888;DHT22;9576;47.792;9.628;2022-07-06T04:57:27;15.30;99.90
18888;DHT22;9576;47.792;9.628;2022-07-06T05:00:30;15.40;99.90
18888;DHT22;9576;47.792;9.628;2022-07-06T05:03:33;15.50;99.90
18888;DHT22;9576;47.792;9.628;2022-07-06T05:06:35;15.50;99.90
18888;DHT22;9576;47.792;9.628;2022-07-06T05:09:39;15.60;99.90
18888;DHT22;9576;47.792;9.628;2022-07-06T05:12:41;15.50;99.90
18888;DHT22;9576;47.792;9.628;2022-07-06T05:15:43;15.60;99.90
18888;DHT22;9576;47.792;9.628;2022-07-06T05:18:45;15.60;99.90
18888;DHT22;9576;47.792;9.628;2022-07-06T05:21:47;15.70;99.90
18888;DHT22;9576;47.792;9.628;2022-07-06T05:24:50;15.70;99.90
18888;DHT22;9576;47.792;9.628;2022-07-06T05:27:52;15.90;99.90
18888;DHT22;9576;47.792;9.628;2022-07-06T05:30:54;15.90;99.90
18888;DHT22;9576;47.792;9.628;2022-07-06T05:33:56;16.00;99.90
18888;DHT22;9576;47.792;9.628;2022-07-06T05:36:58;16.00;99.90
18888;DHT22;9576;47.792;9.628;2022-07-06T05:40:01;16.10;99.90
18888;DHT22;9576;47.792;9.628;2022-07-06T05:43:03;16.20;99.90
18888;DHT22;9576;47.792;9.628;2022-07-06T05:46:06;16.30;99.90
18888;DHT22;9576;47.792;9.628;2022-07-06T05:49:08;16.30;99.90
18888;DHT22;9576;47.792;9.628;2022-07-06T05:52:27;16.40;99.90
18888;DHT22;9576;47.792;9.628;2022-07-06T05:55:30;16.50;99.90
18888;DHT22;9576;47.792;9.628;2022-07-06T05:58:32;16.70;99.90
18888;DHT22;9576;47.792;9.628;2022-07-06T06:01:34;16.80;99.90
18888;DHT22;9576;47.792;9.628;2022-07-06T06:04:36;16.80;99.90
18888;DHT22;9576;47.792;9.628;2022-07-06T06:07:39;16.90;99.90
18888;DHT22;9576;47.792;9.628;2022-07-06T06:10:42;17.00;99.90
18888;DHT22;9576;47.792;9.628;2022-07-06T06:13:44;17.00;99.90
18888;DHT22;9576;47.792;9.628;2022-07-06T06:16:46;17.00;99.90
18888;DHT22;9576;47.792;9.628;2022-07-06T06:19:48;17.10;99.90
18888;DHT22;9576;47.792;9.628;2022-07-06T06:22:52;17.10;99.90
18888;DHT22;9576;47.792;9.628;2022-07-06T06:25:56;17.10;99.90
18888;DHT22;9576;47.792;9.628;2022-07-06T06:28:58;17.10;99.90
18888;DHT22;9576;47.792;9.628;2022-07-06T06:32:00;17.20;99.90
18888;DHT22;9576;47.792;9.628;2022-07-06T06:35:02;17.30;99.90
18888;DHT22;9576;47.792;9.628;2022-07-06T06:38:04;17.30;99.90
18888;DHT22;9576;47.792;9.628;2022-07-06T06:41:07;17.40;99.90
18888;DHT22;9576;47.792;9.628;2022-07-06T06:44:09;17.40;99.90
18888;DHT22;9576;47.792;9.628;2022-07-06T06:47:11;17.40;99.90
18888;DHT22;9576;47.792;9.628;2022-07-06T06:50:13;17.30;99.90
18888;DHT22;9576;47.792;9.628;2022-07-06T06:53:15;17.30;99.90
18888;DHT22;9576;47.792;9.628;2022-07-06T06:56:18;17.40;99.90
18888;DHT22;9576;47.792;9.628;2022-07-06T06:59:20;17.40;99.90
18888;DHT22;9576;47.792;9.628;2022-07-06T07:02:22;17.50;99.90
18888;DHT22;9576;47.792;9.628;2022-07-06T07:05:24;17.80;99.90
18888;DHT22;9576;47.792;9.628;2022-07-06T07:08:26;17.90;99.90
18888;DHT22;9576;47.792;9.628;2022-07-06T07:11:30;17.90;99.90
18888;DHT22;9576;47.792;9.628;2022-07-06T07:14:32;17.90;99.90
18888;DHT22;9576;47.792;9.628;2022-07-06T07:17:34;18.10;99.90
18888;DHT22;9576;47.792;9.628;2022-07-06T07:20:36;18.10;99.90
18888;DHT22;9576;47.792;9.628;2022-07-06T07:23:38;18.20;99.90
18888;DHT22;9576;47.792;9.628;2022-07-06T07:26:41;18.30;99.90
18888;DHT22;9576;47.792;9.628;2022-07-06T07:29:43;18.50;99.90
18888;DHT22;9576;47.792;9.628;2022-07-06T07:32:45;18.50;99.90
18888;DHT22;9576;47.792;9.628;2022-07-06T07:35:47;18.60;99.90
18888;DHT22;9576;47.792;9.628;2022-07-06T07:38:50;18.50;99.90
18888;DHT22;9576;47.792;9.628;2022-07-06T07:41:53;18.40;99.90
18888;DHT22;9576;47.792;9.628;2022-07-06T07:44:55;18.40;99.90
18888;DHT22;9576;47.792;9.628;2022-07-06T07:47:57;18.40;99.90
18888;DHT22;9576;47.792;9.628;2022-07-06T07:50:59;18.40;99.90
18888;DHT22;9576;47.792;9.628;2022-07-06T07:54:01;18.50;99.90
18888;DHT22;9576;47.792;9.628;2022-07-06T07:57:04;18.60;99.90
18888;DHT22;9576;47.792;9.628;2022-07-06T08:00:08;18.80;99.90
18888;DHT22;9576;47.792;9.628;2022-07-06T08:03:11;19.00;99.90
18888;DHT22;9576;47.792;9.628;2022-07-06T08:06:13;19.00;99.90
18888;DHT22;9576;47.792;9.628;2022-07-06T08:09:14;19.20;99.90
18888;DHT22;9576;47.792;9.628;2022-07-06T08:12:18;19.20;99.90
18888;DHT22;9576;47.792;9.628;2022-07-06T08:15:20;19.30;99.90
18888;DHT22;9576;47.792;9.628;2022-07-06T08:18:22;19.40;99.90
18888;DHT22;9576;47.792;9.628;2022-07-06T08:21:25;19.40;99.90
18888;DHT22;9576;47.792;9.628;2022-07-06T08:24:27;19.50;99.90
18888;DHT22;9576;47.792;9.628;2022-07-06T08:27:30;19.60;99.90
18888;DHT22;9576;47.792;9.628;2022-07-06T08:30:32;19.70;99.90
18888;DHT22;9576;47.792;9.628;2022-07-06T08:33:35;19.80;99.90
18888;DHT22;9576;47.792;9.628;2022-07-06T08:36:37;19.80;99.90
18888;DHT22;9576;47.792;9.628;2022-07-06T08:39:39;20.00;99.90
18888;DHT22;9576;47.792;9.628;2022-07-06T08:42:44;20.00;99.90
18888;DHT22;9576;47.792;9.628;2022-07-06T08:45:48;20.00;99.90
18888;DHT22;9576;47.792;9.628;2022-07-06T08:48:51;20.10;99.90
18888;DHT22;9576;47.792;9.628;2022-07-06T08:51:54;20.30;99.90
18888;DHT22;9576;47.792;9.628;2022-07-06T08:54:56;20.50;99.90
18888;DHT22;9576;47.792;9.628;2022-07-06T08:58:00;20.70;99.90
18888;DHT22;9576;47.792;9.628;2022-07-06T09:01:02;20.80;99.90
18888;DHT22;9576;47.792;9.628;2022-07-06T09:04:05;20.90;99.90
18888;DHT22;9576;47.792;9.628;2022-07-06T09:07:07;20.90;99.90
18888;DHT22;9576;47.792;9.628;2022-07-06T09:10:09;21.10;99.90
18888;DHT22;9576;47.792;9.628;2022-07-06T09:13:13;21.00;99.90
18888;DHT22;9576;47.792;9.628;2022-07-06T09:16:16;21.20;99.90
18888;DHT22;9576;47.792;9.628;2022-07-06T09:19:18;21.20;99.90
18888;DHT22;9576;47.792;9.628;2022-07-06T09:22:27;21.20;99.90
18888;DHT22;9576;47.792;9.628;2022-07-06T09:25:30;21.20;99.90
18888;DHT22;9576;47.792;9.628;2022-07-06T09:28:44;21.30;99.90
18888;DHT22;9576;47.792;9.628;2022-07-06T09:31:56;21.40;99.90
18888;DHT22;9576;47.792;9.628;2022-07-06T09:34:59;21.50;99.90
18888;DHT22;9576;47.792;9.628;2022-07-06T09:38:04;21.70;99.90
18888;DHT22;9576;47.792;9.628;2022-07-06T09:41:06;22.00;99.90
18888;DHT22;9576;47.792;9.628;2022-07-06T09:44:10;22.10;99.90
18888;DHT22;9576;47.792;9.628;2022-07-06T09:47:12;22.20;99.90
18888;DHT22;9576;47.792;9.628;2022-07-06T09:50:15;22.30;99.90
18888;DHT22;9576;47.792;9.628;2022-07-06T09:53:18;22.30;99.90
18888;DHT22;9576;47.792;9.628;2022-07-06T09:56:21;22.40;99.90
18888;DHT22;9576;47.792;9.628;2022-07-06T09:59:25;22.80;99.90
18888;DHT22;9576;47.792;9.628;2022-07-06T10:02:28;23.00;99.90
18888;DHT22;9576;47.792;9.628;2022-07-06T10:05:31;23.10;99.90
18888;DHT22;9576;47.792;9.628;2022-07-06T10:08:33;22.80;99.90
18888;DHT22;9576;47.792;9.628;2022-07-06T10:11:38;22.70;99.90
18888;DHT22;9576;47.792;9.628;2022-07-06T10:14:42;22.70;99.90
18888;DHT22;9576;47.792;9.628;2022-07-06T10:17:45;22.80;99.90
18888;DHT22;9576;47.792;9.628;2022-07-06T10:20:48;22.90;99.90
18888;DHT22;9576;47.792;9.628;2022-07-06T10:23:50;23.00;99.90
18888;DHT22;9576;47.792;9.628;2022-07-06T10:26:53;23.40;99.90
18888;DHT22;9576;47.792;9.628;2022-07-06T10:29:57;23.70;99.90
18888;DHT22;9576;47.792;9.628;2022-07-06T10:32:59;23.70;99.90
18888;DHT22;9576;47.792;9.628;2022-07-06T10:36:02;23.80;99.90
18888;DHT22;9576;47.792;9.628;2022-07-06T10:39:04;23.70;99.90
18888;DHT22;9576;47.792;9.628;2022-07-06T10:42:39;23.90;99.90
18888;DHT22;9576;47.792;9.628;2022-07-06T10:45:52;24.10;99.90
18888;DHT22;9576;47.792;9.628;2022-07-06T10:48:57;24.00;99.90
18888;DHT22;9576;47.792;9.628;2022-07-06T10:51:59;24.10;99.90
18888;DHT22;9576;47.792;9.628;2022-07-06T10:55:01;24.20;99.90
18888;DHT22;9576;47.792;9.628;2022-07-06T10:58:04;24.50;99.90
18888;DHT22;9576;47.792;9.628;2022-07-06T11:01:09;24.70;99.90
18888;DHT22;9576;47.792;9.628;2022-07-06T11:04:15;25.10;99.90
18888;DHT22;9576;47.792;9.628;2022-07-06T11:07:20;25.30;99.90
18888;DHT22;9576;47.792;9.628;2022-07-06T11:10:23;25.60;99.90
18888;DHT22;9576;47.792;9.628;2022-07-06T11:13:30;25.40;99.90
18888;DHT22;9576;47.792;9.628;2022-07-06T11:16:59;25.40;99.90
18888;DHT22;9576;47.792;9.628;2022-07-06T11:20:09;25.50;99.90
18888;DHT22;9576;47.792;9.628;2022-07-06T11:23:12;25.70;99.90
18888;DHT22;9576;47.792;9.628;2022-07-06T11:26:17;25.60;99.90
18888;DHT22;9576;47.792;9.628;2022-07-06T11:29:21;25.60;99.90
18888;DHT22;9576;47.792;9.628;2022-07-06T11:32:25;25.70;99.90
18888;DHT22;9576;47.792;9.628;2022-07-06T11:35:28;25.80;99.90
18888;DHT22;9576;47.792;9.628;2022-07-06T11:38:30;26.10;99.90
18888;DHT22;9576;47.792;9.628;2022-07-06T11:41:32;26.20;99.90
18888;DHT22;9576;47.792;9.628;2022-07-06T11:44:35;26.20;99.90
18888;DHT22;9576;47.792;9.628;2022-07-06T11:47:38;26.30;99.90
18888;DHT22;9576;47.792;9.628;2022-07-06T11:50:40;26.60;99.90
18888;DHT22;9576;47.792;9.628;2022-07-06T11:53:44;26.70;99.90
18888;DHT22;9576;47.792;9.628;2022-07-06T11:56:48;27.10;99.90
18888;DHT22;9576;47.792;9.628;2022-07-06T11:59:50;27.30;99.90
18888;DHT22;9576;47.792;9.628;2022-07-06T12:03:01;27.40;99.90
18888;DHT22;9576;47.792;9.628;2022-07-06T12:06:04;27.00;99.90
18888;DHT22;9576;47.792;9.628;2022-07-06T12:09:06;26.90;99.90
18888;DHT22;9576;47.792;9.628;2022-07-06T12:12:09;27.00;99.90
18888;DHT22;9576;47.792;9.628;2022-07-06T12:15:13;26.80;99.90
18888;DHT22;9576;47.792;9.628;2022-07-06T12:18:16;26.20;99.80
18888;DHT22;9576;47.792;9.628;2022-07-06T12:21:19;25.80;99.90
18888;DHT22;9576;47.792;9.628;2022-07-06T12:24:24;25.90;99.90
18888;DHT22;9576;47.792;9.628;2022-07-06T12:27:26;26.40;99.90
18888;DHT22;9576;47.792;9.628;2022-07-06T12:30:28;26.60;99.90
18888;DHT22;9576;47.792;9.628;2022-07-06T12:33:32;27.10;99.90
18888;DHT22;9576;47.792;9.628;2022-07-06T12:36:43;27.50;99.90
18888;DHT22;9576;47.792;9.628;2022-07-06T12:39:46;28.00;97.20
18888;DHT22;9576;47.792;9.628;2022-07-06T12:42:50;28.20;99.90
18888;DHT22;9576;47.792;9.628;2022-07-06T12:45:52;28.30;97.00
18888;DHT22;9576;47.792;9.628;2022-07-06T12:48:57;28.50;99.20
18888;DHT22;9576;47.792;9.628;2022-07-06T12:51:59;28.40;95.10
18888;DHT22;9576;47.792;9.628;2022-07-06T12:55:03;28.40;96.30
18888;DHT22;9576;47.792;9.628;2022-07-06T12:58:05;28.00;95.70
18888;DHT22;9576;47.792;9.628;2022-07-06T13:01:14;28.00;97.60
18888;DHT22;9576;47.792;9.628;2022-07-06T13:04:17;28.20;99.90
18888;DHT22;9576;47.792;9.628;2022-07-06T13:07:20;28.70;98.00
18888;DHT22;9576;47.792;9.628;2022-07-06T13:10:23;29.20;98.10
18888;DHT22;9576;47.792;9.628;2022-07-06T13:13:26;29.50;95.60
18888;DHT22;9576;47.792;9.628;2022-07-06T13:16:28;29.50;93.90
18888;DHT22;9576;47.792;9.628;2022-07-06T13:19:36;29.40;94.40
18888;DHT22;9576;47.792;9.628;2022-07-06T13:22:38;29.50;93.70
18888;DHT22;9576;47.792;9.628;2022-07-06T13:25:40;29.80;98.90
18888;DHT22;9576;47.792;9.628;2022-07-06T13:28:42;29.90;93.90
18888;DHT22;9576;47.792;9.628;2022-07-06T13:31:44;29.60;93.90
18888;DHT22;9576;47.792;9.628;2022-07-06T13:34:48;29.60;94.70
18888;DHT22;9576;47.792;9.628;2022-07-06T13:37:50;29.20;93.60
18888;DHT22;9576;47.792;9.628;2022-07-06T13:40:52;28.50;94.30
18888;DHT22;9576;47.792;9.628;2022-07-06T13:43:54;28.80;95.50
18888;DHT22;9576;47.792;9.628;2022-07-06T13:46:56;28.80;94.30
18888;DHT22;9576;47.792;9.628;2022-07-06T13:49:59;28.00;94.30
18888;DHT22;9576;47.792;9.628;2022-07-06T13:53:01;27.60;96.40
18888;DHT22;9576;47.792;9.628;2022-07-06T13:56:04;27.90;99.80
18888;DHT22;9576;47.792;9.628;2022-07-06T13:59:07;28.30;97.70
18888;DHT22;9576;47.792;9.628;2022-07-06T14:02:09;29.00;97.10
18888;DHT22;9576;47.792;9.628;2022-07-06T14:05:12;29.60;95.70
18888;DHT22;9576;47.792;9.628;2022-07-06T14:08:14;29.40;92.80
18888;DHT22;9576;47.792;9.628;2022-07-06T14:11:17;29.30;95.20
18888;DHT22;9576;47.792;9.628;2022-07-06T14:14:19;30.10;93.90
18888;DHT22;9576;47.792;9.628;2022-07-06T14:17:21;30.50;92.30
18888;DHT22;9576;47.792;9.628;2022-07-06T14:20:24;30.60;92.30
18888;DHT22;9576;47.792;9.628;2022-07-06T14:23:26;30.90;91.00
18888;DHT22;9576;47.792;9.628;2022-07-06T14:26:29;31.00;90.90
18888;DHT22;9576;47.792;9.628;2022-07-06T14:29:32;31.50;91.70
18888;DHT22;9576;47.792;9.628;2022-07-06T14:32:34;32.00;91.70
18888;DHT22;9576;47.792;9.628;2022-07-06T14:35:39;32.60;91.50
18888;DHT22;9576;47.792;9.628;2022-07-06T14:38:41;33.10;86.60
18888;DHT22;9576;47.792;9.628;2022-07-06T14:41:43;33.00;85.60
18888;DHT22;9576;47.792;9.628;2022-07-06T14:44:45;32.90;83.80
18888;DHT22;9576;47.792;9.628;2022-07-06T14:47:47;32.90;91.30
18888;DHT22;9576;47.792;9.628;2022-07-06T14:50:50;33.40;82.60
18888;DHT22;9576;47.792;9.628;2022-07-06T14:53:53;32.80;81.70
18888;DHT22;9576;47.792;9.628;2022-07-06T14:56:55;32.70;90.90
18888;DHT22;9576;47.792;9.628;2022-07-06T14:59:57;33.50;84.70
18888;DHT22;9576;47.792;9.628;2022-07-06T15:02:59;33.10;83.90
18888;DHT22;9576;47.792;9.628;2022-07-06T15:06:02;32.80;84.10
18888;DHT22;9576;47.792;9.628;2022-07-06T15:09:05;33.10;85.30
18888;DHT22;9576;47.792;9.628;2022-07-06T15:12:07;33.10;77.60
18888;DHT22;9576;47.792;9.628;2022-07-06T15:15:10;33.10;79.40
18888;DHT22;9576;47.792;9.628;2022-07-06T15:18:12;33.10;80.70
18888;DHT22;9576;47.792;9.628;2022-07-06T15:21:15;32.90;84.70
18888;DHT22;9576;47.792;9.628;2022-07-06T15:24:18;33.00;80.40
18888;DHT22;9576;47.792;9.628;2022-07-06T15:27:20;33.10;80.00
18888;DHT22;9576;47.792;9.628;2022-07-06T15:30:22;33.10;81.50
18888;DHT22;9576;47.792;9.628;2022-07-06T15:33:25;32.50;83.00
18888;DHT22;9576;47.792;9.628;2022-07-06T15:36:28;31.50;85.20
18888;DHT22;9576;47.792;9.628;2022-07-06T15:39:30;30.50;88.30
18888;DHT22;9576;47.792;9.628;2022-07-06T15:42:32;29.40;87.60
18888;DHT22;9576;47.792;9.628;2022-07-06T15:45:34;28.80;88.00
18888;DHT22;9576;47.792;9.628;2022-07-06T15:48:36;28.20;91.50
18888;DHT22;9576;47.792;9.628;2022-07-06T15:51:40;28.20;88.80
18888;DHT22;9576;47.792;9.628;2022-07-06T15:54:42;29.60;91.00
18888;DHT22;9576;47.792;9.628;2022-07-06T15:57:44;31.10;86.50
18888;DHT22;9576;47.792;9.628;2022-07-06T16:00:46;32.40;83.80
18888;DHT22;9576;47.792;9.628;2022-07-06T16:03:49;32.00;81.80
18888;DHT22;9576;47.792;9.628;2022-07-06T16:06:53;31.00;84.20
18888;DHT22;9576;47.792;9.628;2022-07-06T16:09:55;30.20;85.90
18888;DHT22;9576;47.792;9.628;2022-07-06T16:12:57;30.40;89.90
18888;DHT22;9576;47.792;9.628;2022-07-06T16:15:59;30.40;91.30
18888;DHT22;9576;47.792;9.628;2022-07-06T16:19:01;29.80;88.50
18888;DHT22;9576;47.792;9.628;2022-07-06T16:22:05;29.10;91.70
18888;DHT22;9576;47.792;9.628;2022-07-06T16:25:07;28.20;90.80
18888;DHT22;9576;47.792;9.628;2022-07-06T16:28:09;27.40;91.00
18888;DHT22;9576;47.792;9.628;2022-07-06T16:31:12;27.00;92.70
18888;DHT22;9576;47.792;9.628;2022-07-06T16:34:14;26.70;92.50
18888;DHT22;9576;47.792;9.628;2022-07-06T16:37:17;26.40;93.30
18888;DHT22;9576;47.792;9.628;2022-07-06T16:40:19;26.10;94.60
18888;DHT22;9576;47.792;9.628;2022-07-06T16:43:21;25.80;95.60
18888;DHT22;9576;47.792;9.628;2022-07-06T16:46:23;25.50;95.40
18888;DHT22;9576;47.792;9.628;2022-07-06T16:49:25;25.20;95.80
18888;DHT22;9576;47.792;9.628;2022-07-06T16:52:29;24.80;95.20
18888;DHT22;9576;47.792;9.628;2022-07-06T16:55:31;24.70;96.20
18888;DHT22;9576;47.792;9.628;2022-07-06T16:58:33;24.40;96.50
18888;DHT22;9576;47.792;9.628;2022-07-06T17:01:35;24.30;97.50
18888;DHT22;9576;47.792;9.628;2022-07-06T17:04:37;24.30;98.20
18888;DHT22;9576;47.792;9.628;2022-07-06T17:07:41;24.70;98.50
18888;DHT22;9576;47.792;9.628;2022-07-06T17:10:43;26.60;97.90
18888;DHT22;9576;47.792;9.628;2022-07-06T17:13:45;28.90;96.30
18888;DHT22;9576;47.792;9.628;2022-07-06T17:16:47;30.80;93.50
18888;DHT22;9576;47.792;9.628;2022-07-06T17:19:49;31.10;93.40
18888;DHT22;9576;47.792;9.628;2022-07-06T17:22:53;30.70;92.70
18888;DHT22;9576;47.792;9.628;2022-07-06T17:25:57;30.20;92.60
18888;DHT22;9576;47.792;9.628;2022-07-06T17:28:59;30.20;93.20
18888;DHT22;9576;47.792;9.628;2022-07-06T17:32:01;30.30;93.50
18888;DHT22;9576;47.792;9.628;2022-07-06T17:35:03;29.60;92.70
18888;DHT22;9576;47.792;9.628;2022-07-06T17:38:07;28.30;93.80
18888;DHT22;9576;47.792;9.628;2022-07-06T17:41:09;27.20;94.80
18888;DHT22;9576;47.792;9.628;2022-07-06T17:44:11;26.30;96.20
18888;DHT22;9576;47.792;9.628;2022-07-06T17:47:14;25.60;97.00
18888;DHT22;9576;47.792;9.628;2022-07-06T17:50:17;25.20;97.90
18888;DHT22;9576;47.792;9.628;2022-07-06T17:53:21;24.70;98.40
18888;DHT22;9576;47.792;9.628;2022-07-06T17:56:23;24.40;99.20
18888;DHT22;9576;47.792;9.628;2022-07-06T17:59:25;24.00;99.10
18888;DHT22;9576;47.792;9.628;2022-07-06T18:02:27;23.80;99.90
18888;DHT22;9576;47.792;9.628;2022-07-06T18:05:29;23.60;99.90
18888;DHT22;9576;47.792;9.628;2022-07-06T18:08:32;23.30;99.90
18888;DHT22;9576;47.792;9.628;2022-07-06T18:11:35;23.10;99.90
18888;DHT22;9576;47.792;9.628;2022-07-06T18:14:37;22.90;99.90
18888;DHT22;9576;47.792;9.628;2022-07-06T18:17:39;22.70;99.90
18888;DHT22;9576;47.792;9.628;2022-07-06T18:20:41;22.70;99.90
18888;DHT22;9576;47.792;9.628;2022-07-06T18:23:44;22.50;99.90
18888;DHT22;9576;47.792;9.628;2022-07-06T18:26:46;22.40;99.90
18888;DHT22;9576;47.792;9.628;2022-07-06T18:29:49;22.30;99.90
18888;DHT22;9576;47.792;9.628;2022-07-06T18:32:51;22.30;99.90
18888;DHT22;9576;47.792;9.628;2022-07-06T18:35:56;22.30;99.90
18888;DHT22;9576;47.792;9.628;2022-07-06T18:39:00;22.20;99.90
18888;DHT22;9576;47.792;9.628;2022-07-06T18:42:04;22.10;99.90
18888;DHT22;9576;47.792;9.628;2022-07-06T18:45:08;22.00;99.90
18888;DHT22;9576;47.792;9.628;2022-07-06T18:48:11;21.90;99.90
18888;DHT22;9576;47.792;9.628;2022-07-06T18:51:13;21.90;99.90
18888;DHT22;9576;47.792;9.628;2022-07-06T18:54:17;21.80;99.90
18888;DHT22;9576;47.792;9.628;2022-07-06T18:57:19;21.80;99.90
18888;DHT22;9576;47.792;9.628;2022-07-06T19:00:21;21.70;99.90
18888;DHT22;9576;47.792;9.628;2022-07-06T19:03:23;21.60;99.90
18888;DHT22;9576;47.792;9.628;2022-07-06T19:06:25;21.60;99.90
18888;DHT22;9576;47.792;9.628;2022-07-06T19:09:28;21.50;99.90
18888;DHT22;9576;47.792;9.628;2022-07-06T19:12:30;21.40;99.90
18888;DHT22;9576;47.792;9.628;2022-07-06T19:15:33;21.30;99.90
18888;DHT22;9576;47.792;9.628;2022-07-06T19:18:36;21.10;99.90
18888;DHT22;9576;47.792;9.628;2022-07-06T19:21:38;21.00;99.90
18888;DHT22;9576;47.792;9.628;2022-07-06T19:24:41;20.90;99.90
18888;DHT22;9576;47.792;9.628;2022-07-06T19:27:44;20.80;99.90
18888;DHT22;9576;47.792;9.628;2022-07-06T19:30:46;20.80;99.90
18888;DHT22;9576;47.792;9.628;2022-07-06T19:33:48;20.70;99.90